Meteo Giornale » Osservazioni meteo Italia » Resia Pass

ore: 08:55 - Osservazioni Meteo Resia Pass
Lat. 46° 50' N Lon. 10° 30' E Alt. 1800 metri s.l.m.

sereno Europe/Rome

4 °C

Sereno

Temp. 24 Ore

4 °C

16 °C

Nord

3.7 Km/h

Dew point 1 °C

Umidità 80 %

Visibilità  10 Km

Il sole sorge alle ore 07:39

Il sole tramonta alle ore 18:26

Data e Ora Cielo e Fenomeni T °C DP °C Um. % Pres. hPa Vis. km Vento km/h
Oggi h: 08:55 sereno Sereno 4 1 80 1022 10 N 3.7
Oggi h: 07:55 sereno Sereno 4 1 80 1023 10 N 3.7
Oggi h: 06:55 sereno Sereno 4 2 86 1024 10 N/NE 7.4
Oggi h: 05:55 sereno Sereno 5 2 80 1024 10 N 5.5
Oggi h: 04:55 sereno Sereno 5 2 80 1024 10 N 3.7
Oggi h: 01:55 sereno Sereno 6 3 81 1026 10 N 0
Oggi h: 00:55 sereno Sereno 6 2 75 1026 10 N 0
Ieri h: 22:55 sereno Sereno 7 3 75 1026 10 N 0
Ieri h: 21:55 sereno Sereno 8 3 70 1026 10 N 0
Ieri h: 20:55 sereno Sereno 9 3 66 1026 10 N 3.7
Ieri h: 19:55 sereno Sereno 10 3 61 1026 10 N 0
Ieri h: 18:55 sereno Sereno 11 3 57 1027 10 N 0
Ieri h: 17:55 sereno Sereno 13 4 54 1027 10 N 5.5
Ieri h: 16:55 sereno Sereno 13 4 54 1027 10 SO 11.1
Ieri h: 15:55 sereno Sereno 14 3 47 1028 10 SO 13
Ieri h: 14:55 sereno Sereno 14 3 47 1029 10 SO 16.7
Ieri h: 13:55 sereno Sereno 15 -0 35 1029 10 S/SO 11.1
Ieri h: 12:55 sereno Sereno 16 1 36 1030 10 S/SO 11.1
Ieri h: 11:55 sereno Sereno 15 1 38 1030 10 N 5.5
Ieri h: 10:55 sereno Sereno 10 1 53 1030 10 N/NE 7.4
Ieri h: 09:55 sereno Sereno 8 2 65 1031 10 N/NE 11.1